sensor_id;sensor_type;location;lat;lon;timestamp;pressure;altitude;pressure_sealevel;temperature
69857;BMP280;57147;53.582;10.112;2023-10-13T00:04:21;100697.75;;;12.94
69857;BMP280;57147;53.582;10.112;2023-10-13T00:09:22;100661.84;;;12.91
69857;BMP280;57147;53.582;10.112;2023-10-13T00:14:22;100608.59;;;13.08
69857;BMP280;57147;53.582;10.112;2023-10-13T00:19:26;100598.56;;;13.05
69857;BMP280;57147;53.582;10.112;2023-10-13T00:24:26;100593.66;;;12.90
69857;BMP280;57147;53.582;10.112;2023-10-13T00:29:27;100504.03;;;12.94
69857;BMP280;57147;53.582;10.112;2023-10-13T00:34:30;100443.34;;;13.00
69857;BMP280;57147;53.582;10.112;2023-10-13T00:39:31;100445.69;;;13.01
69857;BMP280;57147;53.582;10.112;2023-10-13T00:44:31;100397.41;;;13.03
69857;BMP280;57147;53.582;10.112;2023-10-13T00:49:35;100394.13;;;12.97
69857;BMP280;57147;53.582;10.112;2023-10-13T00:54:37;100328.59;;;13.05
69857;BMP280;57147;53.582;10.112;2023-10-13T00:59:38;100321.22;;;13.10
69857;BMP280;57147;53.582;10.112;2023-10-13T01:04:41;100320.28;;;13.06
69857;BMP280;57147;53.582;10.112;2023-10-13T01:09:42;100290.97;;;13.06
69857;BMP280;57147;53.582;10.112;2023-10-13T01:14:43;100247.69;;;13.09
69857;BMP280;57147;53.582;10.112;2023-10-13T01:19:46;100218.84;;;13.11
69857;BMP280;57147;53.582;10.112;2023-10-13T01:24:49;100197.22;;;13.04
69857;BMP280;57147;53.582;10.112;2023-10-13T01:29:50;100136.75;;;12.96
69857;BMP280;57147;53.582;10.112;2023-10-13T01:34:50;100120.88;;;13.08
69857;BMP280;57147;53.582;10.112;2023-10-13T01:39:54;100131.41;;;13.05
69857;BMP280;57147;53.582;10.112;2023-10-13T01:44:54;100063.84;;;13.01
69857;BMP280;57147;53.582;10.112;2023-10-13T01:49:55;100067.75;;;13.03
69857;BMP280;57147;53.582;10.112;2023-10-13T01:54:58;100010.69;;;13.04
69857;BMP280;57147;53.582;10.112;2023-10-13T01:59:59;99999.78;;;13.18
69857;BMP280;57147;53.582;10.112;2023-10-13T02:05:00;100040.88;;;13.17
69857;BMP280;57147;53.582;10.112;2023-10-13T02:10:03;100016.56;;;13.18
69857;BMP280;57147;53.582;10.112;2023-10-13T02:15:05;99976.75;;;13.13
69857;BMP280;57147;53.582;10.112;2023-10-13T02:20:06;99953.22;;;13.15
69857;BMP280;57147;53.582;10.112;2023-10-13T02:25:10;99929.03;;;13.21
69857;BMP280;57147;53.582;10.112;2023-10-13T02:30:12;99902.53;;;13.24
69857;BMP280;57147;53.582;10.112;2023-10-13T02:35:12;99890.94;;;13.20
69857;BMP280;57147;53.582;10.112;2023-10-13T02:40:16;99862.88;;;13.23
69857;BMP280;57147;53.582;10.112;2023-10-13T02:45:16;99834.66;;;13.22
69857;BMP280;57147;53.582;10.112;2023-10-13T02:50:17;99802.66;;;13.22
69857;BMP280;57147;53.582;10.112;2023-10-13T02:55:20;99780.03;;;13.28
69857;BMP280;57147;53.582;10.112;2023-10-13T03:00:21;99741.16;;;13.27
69857;BMP280;57147;53.582;10.112;2023-10-13T03:05:22;99685.41;;;13.22
69857;BMP280;57147;53.582;10.112;2023-10-13T03:10:25;99593.91;;;13.17
69857;BMP280;57147;53.582;10.112;2023-10-13T03:15:25;99559.91;;;13.27
69857;BMP280;57147;53.582;10.112;2023-10-13T03:20:26;99579.00;;;13.29
69857;BMP280;57147;53.582;10.112;2023-10-13T03:25:30;99529.38;;;13.24
69857;BMP280;57147;53.582;10.112;2023-10-13T03:30:31;99514.16;;;13.25
69857;BMP280;57147;53.582;10.112;2023-10-13T03:35:33;99465.59;;;13.31
69857;BMP280;57147;53.582;10.112;2023-10-13T03:40:36;99349.81;;;13.29
69857;BMP280;57147;53.582;10.112;2023-10-13T03:45:38;99233.22;;;13.26
69857;BMP280;57147;53.582;10.112;2023-10-13T03:50:39;99097.59;;;13.21
69857;BMP280;57147;53.582;10.112;2023-10-13T03:55:43;99026.91;;;13.27
69857;BMP280;57147;53.582;10.112;2023-10-13T04:00:43;98979.28;;;13.25
69857;BMP280;57147;53.582;10.112;2023-10-13T04:05:44;98953.56;;;13.33
69857;BMP280;57147;53.582;10.112;2023-10-13T04:10:47;98946.97;;;13.27
69857;BMP280;57147;53.582;10.112;2023-10-13T04:15:47;98908.13;;;13.26
69857;BMP280;57147;53.582;10.112;2023-10-13T04:20:52;98914.16;;;13.23
69857;BMP280;57147;53.582;10.112;2023-10-13T04:25:56;98958.03;;;13.48
69857;BMP280;57147;53.582;10.112;2023-10-13T04:30:56;98934.41;;;13.46
69857;BMP280;57147;53.582;10.112;2023-10-13T04:36:00;98905.28;;;13.38
69857;BMP280;57147;53.582;10.112;2023-10-13T04:41:03;98876.97;;;13.52
69857;BMP280;57147;53.582;10.112;2023-10-13T04:46:04;98869.03;;;13.56
69857;BMP280;57147;53.582;10.112;2023-10-13T04:51:05;98819.06;;;13.49
69857;BMP280;57147;53.582;10.112;2023-10-13T04:56:08;98811.84;;;13.50
69857;BMP280;57147;53.582;10.112;2023-10-13T05:01:08;98778.50;;;13.63
69857;BMP280;57147;53.582;10.112;2023-10-13T05:06:09;98759.09;;;13.66
69857;BMP280;57147;53.582;10.112;2023-10-13T05:11:12;98718.41;;;13.69
69857;BMP280;57147;53.582;10.112;2023-10-13T05:16:13;98705.13;;;13.73
69857;BMP280;57147;53.582;10.112;2023-10-13T05:21:13;98678.88;;;13.75
69857;BMP280;57147;53.582;10.112;2023-10-13T05:26:16;98662.50;;;13.76
69857;BMP280;57147;53.582;10.112;2023-10-13T05:31:17;98652.22;;;13.78
69857;BMP280;57147;53.582;10.112;2023-10-13T05:36:17;98630.44;;;13.69
69857;BMP280;57147;53.582;10.112;2023-10-13T05:41:22;98637.06;;;13.82
69857;BMP280;57147;53.582;10.112;2023-10-13T05:46:23;98575.59;;;13.38
69857;BMP280;57147;53.582;10.112;2023-10-13T05:51:23;98642.41;;;13.82
69857;BMP280;57147;53.582;10.112;2023-10-13T05:56:26;98634.50;;;13.93
69857;BMP280;57147;53.582;10.112;2023-10-13T06:01:27;98603.66;;;13.95
69857;BMP280;57147;53.582;10.112;2023-10-13T06:06:28;98588.06;;;13.97
69857;BMP280;57147;53.582;10.112;2023-10-13T06:11:31;98574.41;;;14.02
69857;BMP280;57147;53.582;10.112;2023-10-13T06:16:31;98543.59;;;14.09
69857;BMP280;57147;53.582;10.112;2023-10-13T06:21:32;98518.84;;;14.12
69857;BMP280;57147;53.582;10.112;2023-10-13T06:26:35;98509.34;;;14.14
69857;BMP280;57147;53.582;10.112;2023-10-13T06:31:36;98469.66;;;14.09
69857;BMP280;57147;53.582;10.112;2023-10-13T06:36:36;98469.81;;;14.27
69857;BMP280;57147;53.582;10.112;2023-10-13T06:41:39;98450.38;;;14.30
69857;BMP280;57147;53.582;10.112;2023-10-13T06:46:40;98401.06;;;14.10
69857;BMP280;57147;53.582;10.112;2023-10-13T06:51:41;98411.91;;;14.38
69857;BMP280;57147;53.582;10.112;2023-10-13T06:56:44;98421.81;;;14.41
69857;BMP280;57147;53.582;10.112;2023-10-13T07:01:44;98421.84;;;14.44
69857;BMP280;57147;53.582;10.112;2023-10-13T07:06:45;98435.56;;;14.43
69857;BMP280;57147;53.582;10.112;2023-10-13T07:11:48;98434.84;;;14.50
69857;BMP280;57147;53.582;10.112;2023-10-13T07:16:56;98433.72;;;14.54
69857;BMP280;57147;53.582;10.112;2023-10-13T07:21:57;98429.13;;;14.51
69857;BMP280;57147;53.582;10.112;2023-10-13T07:27:01;98448.59;;;14.55
69857;BMP280;57147;53.582;10.112;2023-10-13T07:32:01;98446.31;;;14.57
69857;BMP280;57147;53.582;10.112;2023-10-13T07:37:02;98446.34;;;14.61
69857;BMP280;57147;53.582;10.112;2023-10-13T07:42:05;98437.97;;;14.66
69857;BMP280;57147;53.582;10.112;2023-10-13T07:47:06;98428.44;;;14.68
69857;BMP280;57147;53.582;10.112;2023-10-13T07:52:08;98400.59;;;14.66
69857;BMP280;57147;53.582;10.112;2023-10-13T07:57:11;98390.69;;;14.66
69857;BMP280;57147;53.582;10.112;2023-10-13T08:02:12;98365.50;;;14.67
69857;BMP280;57147;53.582;10.112;2023-10-13T08:07:12;98343.78;;;14.76
69857;BMP280;57147;53.582;10.112;2023-10-13T08:12:16;98319.72;;;14.72
69857;BMP280;57147;53.582;10.112;2023-10-13T08:17:16;98322.03;;;14.74
69857;BMP280;57147;53.582;10.112;2023-10-13T08:22:17;98332.72;;;14.70
69857;BMP280;57147;53.582;10.112;2023-10-13T08:27:21;98331.19;;;14.69
69857;BMP280;57147;53.582;10.112;2023-10-13T08:32:22;98335.75;;;14.72
69857;BMP280;57147;53.582;10.112;2023-10-13T08:37:23;98343.41;;;14.74
69857;BMP280;57147;53.582;10.112;2023-10-13T08:42:28;98361.72;;;14.75
69857;BMP280;57147;53.582;10.112;2023-10-13T08:47:29;98367.00;;;14.61
69857;BMP280;57147;53.582;10.112;2023-10-13T08:52:30;98423.50;;;14.77
69857;BMP280;57147;53.582;10.112;2023-10-13T08:57:34;98445.63;;;14.74
69857;BMP280;57147;53.582;10.112;2023-10-13T09:02:34;98487.63;;;14.77
69857;BMP280;57147;53.582;10.112;2023-10-13T09:07:44;98528.06;;;14.79
69857;BMP280;57147;53.582;10.112;2023-10-13T09:12:53;98560.13;;;14.79
69857;BMP280;57147;53.582;10.112;2023-10-13T09:17:54;98550.91;;;14.66
69857;BMP280;57147;53.582;10.112;2023-10-13T09:22:55;98592.22;;;14.86
69857;BMP280;57147;53.582;10.112;2023-10-13T09:27:59;98631.19;;;14.95
69857;BMP280;57147;53.582;10.112;2023-10-13T09:33:00;98648.03;;;14.99
69857;BMP280;57147;53.582;10.112;2023-10-13T09:38:00;98651.88;;;15.05
69857;BMP280;57147;53.582;10.112;2023-10-13T09:43:06;98638.22;;;15.17
69857;BMP280;57147;53.582;10.112;2023-10-13T09:48:10;98625.28;;;15.22
69857;BMP280;57147;53.582;10.112;2023-10-13T09:53:11;98591.28;;;15.23
69857;BMP280;57147;53.582;10.112;2023-10-13T09:58:16;98539.75;;;15.22
69857;BMP280;57147;53.582;10.112;2023-10-13T10:03:18;98460.34;;;15.23
69857;BMP280;57147;53.582;10.112;2023-10-13T10:08:25;98390.84;;;15.23
69857;BMP280;57147;53.582;10.112;2023-10-13T10:13:35;98325.91;;;15.26
69857;BMP280;57147;53.582;10.112;2023-10-13T10:18:40;98307.59;;;15.28
69857;BMP280;57147;53.582;10.112;2023-10-13T10:23:41;98311.78;;;15.32
69857;BMP280;57147;53.582;10.112;2023-10-13T10:28:55;98299.19;;;15.37
69857;BMP280;57147;53.582;10.112;2023-10-13T10:33:56;98270.91;;;15.43
69857;BMP280;57147;53.582;10.112;2023-10-13T10:38:57;98274.72;;;15.52
69857;BMP280;57147;53.582;10.112;2023-10-13T10:44:00;98227.38;;;15.42
69857;BMP280;57147;53.582;10.112;2023-10-13T10:49:03;98262.47;;;15.72
69857;BMP280;57147;53.582;10.112;2023-10-13T10:54:04;98237.97;;;15.85
69857;BMP280;57147;53.582;10.112;2023-10-13T10:59:08;98208.50;;;15.95
69857;BMP280;57147;53.582;10.112;2023-10-13T11:04:09;98209.63;;;16.01
69857;BMP280;57147;53.582;10.112;2023-10-13T11:09:10;98232.56;;;16.06
69857;BMP280;57147;53.582;10.112;2023-10-13T11:14:22;98233.59;;;16.19
69857;BMP280;57147;53.582;10.112;2023-10-13T11:19:34;98192.66;;;16.22
69857;BMP280;57147;53.582;10.112;2023-10-13T11:24:39;98197.59;;;16.27
69857;BMP280;57147;53.582;10.112;2023-10-13T11:29:43;98172.75;;;16.27
69857;BMP280;57147;53.582;10.112;2023-10-13T11:34:44;98152.69;;;16.52
69857;BMP280;57147;53.582;10.112;2023-10-13T11:39:44;98161.78;;;16.66
69857;BMP280;57147;53.582;10.112;2023-10-13T11:44:48;98173.91;;;16.77
69857;BMP280;57147;53.582;10.112;2023-10-13T11:49:48;98212.09;;;16.88
69857;BMP280;57147;53.582;10.112;2023-10-13T11:54:49;98306.53;;;16.99
69857;BMP280;57147;53.582;10.112;2023-10-13T11:59:52;98382.97;;;17.18
69857;BMP280;57147;53.582;10.112;2023-10-13T12:04:53;98427.81;;;17.18
69857;BMP280;57147;53.582;10.112;2023-10-13T12:09:53;98440.03;;;17.22
69857;BMP280;57147;53.582;10.112;2023-10-13T12:14:57;98544.50;;;17.36
69857;BMP280;57147;53.582;10.112;2023-10-13T12:19:57;98603.09;;;17.48
69857;BMP280;57147;53.582;10.112;2023-10-13T12:24:58;98754.81;;;17.53
69857;BMP280;57147;53.582;10.112;2023-10-13T12:30:01;98760.97;;;17.32
69857;BMP280;57147;53.582;10.112;2023-10-13T12:35:03;98957.16;;;17.55
69857;BMP280;57147;53.582;10.112;2023-10-13T12:40:07;99050.69;;;17.61
69857;BMP280;57147;53.582;10.112;2023-10-13T12:45:10;99147.72;;;17.70
69857;BMP280;57147;53.582;10.112;2023-10-13T12:50:11;99018.53;;;17.68
69857;BMP280;57147;53.582;10.112;2023-10-13T12:55:11;99046.13;;;17.72
69857;BMP280;57147;53.582;10.112;2023-10-13T13:00:15;99210.25;;;17.81
69857;BMP280;57147;53.582;10.112;2023-10-13T13:05:16;99160.78;;;17.85
69857;BMP280;57147;53.582;10.112;2023-10-13T13:10:17;99030.75;;;17.83
69857;BMP280;57147;53.582;10.112;2023-10-13T13:15:20;98883.53;;;17.78
69857;BMP280;57147;53.582;10.112;2023-10-13T13:20:21;98979.75;;;17.83
69857;BMP280;57147;53.582;10.112;2023-10-13T13:25:21;98925.69;;;17.88
69857;BMP280;57147;53.582;10.112;2023-10-13T13:30:25;99001.63;;;17.99
69857;BMP280;57147;53.582;10.112;2023-10-13T13:35:25;98964.03;;;18.13
69857;BMP280;57147;53.582;10.112;2023-10-13T13:40:26;99053.38;;;18.35
69857;BMP280;57147;53.582;10.112;2023-10-13T13:45:29;99251.81;;;18.51
69857;BMP280;57147;53.582;10.112;2023-10-13T13:50:30;99287.91;;;18.42
69857;BMP280;57147;53.582;10.112;2023-10-13T13:55:33;99150.88;;;18.21
69857;BMP280;57147;53.582;10.112;2023-10-13T14:00:37;99124.34;;;18.09
69857;BMP280;57147;53.582;10.112;2023-10-13T14:05:40;99132.78;;;17.97
69857;BMP280;57147;53.582;10.112;2023-10-13T14:10:41;99046.13;;;18.00
69857;BMP280;57147;53.582;10.112;2023-10-13T14:15:45;99125.13;;;18.06
69857;BMP280;57147;53.582;10.112;2023-10-13T14:20:45;99260.56;;;18.09
69857;BMP280;57147;53.582;10.112;2023-10-13T14:25:46;99153.13;;;18.05
69857;BMP280;57147;53.582;10.112;2023-10-13T14:30:49;99254.00;;;17.99
69857;BMP280;57147;53.582;10.112;2023-10-13T14:35:50;99064.91;;;17.86
69857;BMP280;57147;53.582;10.112;2023-10-13T14:40:56;98918.84;;;17.73
69857;BMP280;57147;53.582;10.112;2023-10-13T14:45:59;98815.72;;;17.67
69857;BMP280;57147;53.582;10.112;2023-10-13T14:51:00;98793.09;;;17.75
69857;BMP280;57147;53.582;10.112;2023-10-13T14:56:00;98877.03;;;17.79
69857;BMP280;57147;53.582;10.112;2023-10-13T15:01:10;98934.16;;;17.79
69857;BMP280;57147;53.582;10.112;2023-10-13T15:06:15;99202.59;;;17.97
69857;BMP280;57147;53.582;10.112;2023-10-13T15:11:16;99110.53;;;17.86
69857;BMP280;57147;53.582;10.112;2023-10-13T15:16:20;99387.91;;;18.04
69857;BMP280;57147;53.582;10.112;2023-10-13T15:21:24;99563.31;;;18.15
69857;BMP280;57147;53.582;10.112;2023-10-13T15:26:25;99485.38;;;18.08
69857;BMP280;57147;53.582;10.112;2023-10-13T15:31:29;99449.63;;;18.00
69857;BMP280;57147;53.582;10.112;2023-10-13T15:36:29;99587.03;;;18.06
69857;BMP280;57147;53.582;10.112;2023-10-13T15:41:30;99625.66;;;18.35
69857;BMP280;57147;53.582;10.112;2023-10-13T15:46:33;99505.81;;;18.23
69857;BMP280;57147;53.582;10.112;2023-10-13T15:51:34;99554.22;;;18.30
69857;BMP280;57147;53.582;10.112;2023-10-13T15:56:35;99539.59;;;18.24
69857;BMP280;57147;53.582;10.112;2023-10-13T16:01:38;99561.94;;;18.35
69857;BMP280;57147;53.582;10.112;2023-10-13T16:06:39;99581.16;;;18.41
69857;BMP280;57147;53.582;10.112;2023-10-13T16:11:40;99592.38;;;18.54
69857;BMP280;57147;53.582;10.112;2023-10-13T16:16:45;99531.63;;;18.38
69857;BMP280;57147;53.582;10.112;2023-10-13T16:21:46;99498.53;;;18.27
69857;BMP280;57147;53.582;10.112;2023-10-13T16:26:47;99374.59;;;18.25
69857;BMP280;57147;53.582;10.112;2023-10-13T16:31:50;99443.66;;;18.21
69857;BMP280;57147;53.582;10.112;2023-10-13T16:36:51;99418.28;;;18.15
69857;BMP280;57147;53.582;10.112;2023-10-13T16:41:51;99483.59;;;18.26
69857;BMP280;57147;53.582;10.112;2023-10-13T16:46:55;99336.91;;;18.11
69857;BMP280;57147;53.582;10.112;2023-10-13T16:51:55;99094.41;;;17.82
69857;BMP280;57147;53.582;10.112;2023-10-13T16:56:56;98958.72;;;17.64
69857;BMP280;57147;53.582;10.112;2023-10-13T17:01:59;98602.00;;;17.28
69857;BMP280;57147;53.582;10.112;2023-10-13T17:07:01;98577.94;;;17.18
69857;BMP280;57147;53.582;10.112;2023-10-13T17:12:01;98491.00;;;17.15
69857;BMP280;57147;53.582;10.112;2023-10-13T17:17:05;98430.53;;;17.07
69857;BMP280;57147;53.582;10.112;2023-10-13T17:22:05;98535.84;;;17.11
69857;BMP280;57147;53.582;10.112;2023-10-13T17:27:06;98501.34;;;17.13
69857;BMP280;57147;53.582;10.112;2023-10-13T17:32:09;98574.84;;;17.19
69857;BMP280;57147;53.582;10.112;2023-10-13T17:37:10;98686.72;;;17.22
69857;BMP280;57147;53.582;10.112;2023-10-13T17:42:10;98589.78;;;17.20
69857;BMP280;57147;53.582;10.112;2023-10-13T17:47:13;98911.94;;;17.33
69857;BMP280;57147;53.582;10.112;2023-10-13T17:52:14;99146.47;;;17.42
69857;BMP280;57147;53.582;10.112;2023-10-13T17:57:15;99198.97;;;17.43
69857;BMP280;57147;53.582;10.112;2023-10-13T18:02:18;99138.41;;;17.39
69857;BMP280;57147;53.582;10.112;2023-10-13T18:07:19;99272.88;;;17.30
69857;BMP280;57147;53.582;10.112;2023-10-13T18:12:19;99371.09;;;17.45
69857;BMP280;57147;53.582;10.112;2023-10-13T18:17:23;99461.56;;;17.48
69857;BMP280;57147;53.582;10.112;2023-10-13T18:22:23;99423.97;;;17.45
69857;BMP280;57147;53.582;10.112;2023-10-13T18:27:24;99467.59;;;17.38
69857;BMP280;57147;53.582;10.112;2023-10-13T18:32:27;99523.75;;;17.58
69857;BMP280;57147;53.582;10.112;2023-10-13T18:37:28;99372.63;;;17.50
69857;BMP280;57147;53.582;10.112;2023-10-13T18:42:28;99422.53;;;17.54
69857;BMP280;57147;53.582;10.112;2023-10-13T18:47:31;99391.03;;;17.51
69857;BMP280;57147;53.582;10.112;2023-10-13T18:52:32;99300.56;;;17.48
69857;BMP280;57147;53.582;10.112;2023-10-13T18:57:33;99348.78;;;17.38
69857;BMP280;57147;53.582;10.112;2023-10-13T19:02:36;99323.53;;;17.42
69857;BMP280;57147;53.582;10.112;2023-10-13T19:07:37;99357.28;;;17.47
69857;BMP280;57147;53.582;10.112;2023-10-13T19:12:38;99343.06;;;17.39
69857;BMP280;57147;53.582;10.112;2023-10-13T19:17:41;99220.00;;;17.34
69857;BMP280;57147;53.582;10.112;2023-10-13T19:22:42;99252.22;;;17.38
69857;BMP280;57147;53.582;10.112;2023-10-13T19:27:44;99215.41;;;17.31
69857;BMP280;57147;53.582;10.112;2023-10-13T19:32:47;99199.25;;;17.24
69857;BMP280;57147;53.582;10.112;2023-10-13T19:37:48;99187.47;;;17.39
69857;BMP280;57147;53.582;10.112;2023-10-13T19:42:49;99127.28;;;17.37
69857;BMP280;57147;53.582;10.112;2023-10-13T19:47:52;99184.00;;;17.35
69857;BMP280;57147;53.582;10.112;2023-10-13T19:52:52;99277.19;;;17.45
69857;BMP280;57147;53.582;10.112;2023-10-13T19:57:56;99362.56;;;17.36
69857;BMP280;57147;53.582;10.112;2023-10-13T20:02:59;99435.53;;;17.56
69857;BMP280;57147;53.582;10.112;2023-10-13T20:07:59;99515.38;;;17.66
69857;BMP280;57147;53.582;10.112;2023-10-13T20:13:00;99505.81;;;17.69
69857;BMP280;57147;53.582;10.112;2023-10-13T20:18:03;99539.97;;;17.72
69857;BMP280;57147;53.582;10.112;2023-10-13T20:23:05;99452.19;;;17.72
69857;BMP280;57147;53.582;10.112;2023-10-13T20:28:05;99471.28;;;17.64
69857;BMP280;57147;53.582;10.112;2023-10-13T20:33:09;99352.66;;;17.40
69857;BMP280;57147;53.582;10.112;2023-10-13T20:38:09;99330.75;;;17.31
69857;BMP280;57147;53.582;10.112;2023-10-13T20:43:12;99300.25;;;17.06
69857;BMP280;57147;53.582;10.112;2023-10-13T20:48:16;99321.63;;;16.99
69857;BMP280;57147;53.582;10.112;2023-10-13T20:53:16;99218.97;;;16.88
69857;BMP280;57147;53.582;10.112;2023-10-13T20:58:17;99206.66;;;16.80
69857;BMP280;57147;53.582;10.112;2023-10-13T21:03:20;99223.47;;;16.80
69857;BMP280;57147;53.582;10.112;2023-10-13T21:08:21;99165.28;;;16.77
69857;BMP280;57147;53.582;10.112;2023-10-13T21:13:21;99128.50;;;16.74
69857;BMP280;57147;53.582;10.112;2023-10-13T21:18:26;98976.13;;;16.66
69857;BMP280;57147;53.582;10.112;2023-10-13T21:23:27;98941.63;;;16.53
69857;BMP280;57147;53.582;10.112;2023-10-13T21:28:27;98948.88;;;16.49
69857;BMP280;57147;53.582;10.112;2023-10-13T21:33:30;98937.72;;;16.40
69857;BMP280;57147;53.582;10.112;2023-10-13T21:38:31;99054.06;;;16.46
69857;BMP280;57147;53.582;10.112;2023-10-13T21:43:32;99122.19;;;16.45
69857;BMP280;57147;53.582;10.112;2023-10-13T21:48:35;99016.63;;;16.53
69857;BMP280;57147;53.582;10.112;2023-10-13T21:53:36;99051.78;;;16.45
69857;BMP280;57147;53.582;10.112;2023-10-13T21:58:37;99135.28;;;16.57
69857;BMP280;57147;53.582;10.112;2023-10-13T22:03:40;99227.16;;;16.61
69857;BMP280;57147;53.582;10.112;2023-10-13T22:08:41;99177.78;;;16.62
69857;BMP280;57147;53.582;10.112;2023-10-13T22:13:41;99111.56;;;16.59
69857;BMP280;57147;53.582;10.112;2023-10-13T22:18:48;99052.63;;;16.59
69857;BMP280;57147;53.582;10.112;2023-10-13T22:23:49;99082.88;;;16.60
69857;BMP280;57147;53.582;10.112;2023-10-13T22:28:49;99050.69;;;16.56
69857;BMP280;57147;53.582;10.112;2023-10-13T22:33:53;99004.41;;;16.59
69857;BMP280;57147;53.582;10.112;2023-10-13T22:38:55;98910.91;;;16.37
69857;BMP280;57147;53.582;10.112;2023-10-13T22:43:56;98950.06;;;16.62
69857;BMP280;57147;53.582;10.112;2023-10-13T22:48:59;98944.72;;;16.66
69857;BMP280;57147;53.582;10.112;2023-10-13T22:53:59;98906.47;;;16.69
69857;BMP280;57147;53.582;10.112;2023-10-13T22:59:00;98888.50;;;16.70
69857;BMP280;57147;53.582;10.112;2023-10-13T23:04:03;98853.63;;;16.66
69857;BMP280;57147;53.582;10.112;2023-10-13T23:09:04;98808.50;;;16.64
69857;BMP280;57147;53.582;10.112;2023-10-13T23:14:05;98565.84;;;16.63
69857;BMP280;57147;53.582;10.112;2023-10-13T23:19:08;98001.78;;;16.32
69857;BMP280;57147;53.582;10.112;2023-10-13T23:24:08;97537.34;;;16.01
69857;BMP280;57147;53.582;10.112;2023-10-13T23:29:09;97376.63;;;15.92
69857;BMP280;57147;53.582;10.112;2023-10-13T23:34:12;97210.53;;;15.66
69857;BMP280;57147;53.582;10.112;2023-10-13T23:39:13;97165.31;;;15.75
69857;BMP280;57147;53.582;10.112;2023-10-13T23:44:13;97120.34;;;15.70
69857;BMP280;57147;53.582;10.112;2023-10-13T23:49:16;97109.56;;;15.74
69857;BMP280;57147;53.582;10.112;2023-10-13T23:54:17;97075.44;;;15.62
69857;BMP280;57147;53.582;10.112;2023-10-13T23:59:18;97103.59;;;15.66
